Nearby METAR Reports

 

KLOM - Philly Wings F, Pennsylvania, USA
Distance from station: SW 6mi, 10km
Updated: Sun, 23-Nov-2014 6:35pm EST
Clear
Clear
 Wind from calm
Wind: Calm
Temperature: 43°F , 6°C
Dew Point: 32°F , 0°C
Humidity: 66%
Barometer: 30.10 inHg , 1019.3 hPa
Clouds: Clear
Visibility: 10 miles , 16 km
2014/11/23 23:35 KLOM 232335Z AUTO 00000KT 10SM CLR 06/00 A3010 RMK AO1
KDYL - Doylestown, Pennsylvania, USA
Distance from station: NNE 10mi, 17km
Updated: Sun, 23-Nov-2014 5:54pm EST
Clear
Clear
 Wind from calm
Wind: Calm
Temperature: 45°F , 7°C
Dew Point: 27°F , -3°C
Humidity: 49%
Barometer: 30.11 inHg , 1019.6 hPa
Clouds: Clear
Visibility: 10 miles , 16 km
2014/11/23 22:54 KDYL 232254Z AUTO 00000KT 10SM CLR 07/M03 A3011 RMK AO2 SLP199 T00721028
KPNE - Philadelphia/Ne, Pennsylvania, USA
Distance from station: SE 11mi, 18km
Updated: Sun, 23-Nov-2014 5:54pm EST
Clear
Clear
 Wind from calm
Wind: Calm
Temperature: 52°F , 11°C
Dew Point: 27°F , -3°C
Humidity: 38%
Barometer: 30.14 inHg , 1020.7 hPa
Clouds: Clear
Visibility: 10 miles , 16 km
2014/11/23 22:54 KPNE 232254Z AUTO 00000KT 10SM CLR 11/M03 A3014 RMK AO2 SLP206 T01111033 TSNO
 
KPTW - Pottstown, Pennsylvania, USA
Distance from station: W 20mi, 32km
Updated: Sun, 23-Nov-2014 5:54pm EST
Clear
Clear
 Wind from calm
Wind: Calm
Temperature: 45°F , 7°C
Dew Point: 28°F , -2°C
Humidity: 53%
Barometer: 30.11 inHg , 1019.6 hPa
Clouds: Clear
Visibility: 10 miles , 16 km
2014/11/23 22:54 KPTW 232254Z AUTO 00000KT 10SM CLR 07/M02 A3011 RMK AO2 SLP196 T00671022
KTTN - Trenton, New Jersey, USA
Distance from station: ENE 20mi, 32km
Updated: Sun, 23-Nov-2014 5:53pm EST
Clear
Clear
 Wind from S
Wind: S 6 mph , 9 km/h
Temperature: 48°F , 9°C
Wind Chill: 45°F , 7°C
Dew Point: 27°F , -3°C
Humidity: 43%
Barometer: 30.12 inHg , 1020 hPa
Clouds: Clear
Visibility: 10 miles , 16 km
2014/11/23 22:53 KTTN 232253Z 18005KT 10SM CLR 09/M03 A3012 RMK AO2 SLP193 T00941028
KUKT - Quakertown Arp, Pennsylvania, USA
Distance from station: NNW 20mi, 32km
Updated: Sun, 23-Nov-2014 6:35pm EST
Clear
Clear
 Wind from SE
Wind: SE 3 mph , 6 km/h
Temperature: 45°F , 7°C
Dew Point: 28°F , -2°C
Humidity: 53%
Barometer: 30.10 inHg , 1019.3 hPa
Clouds: Clear
Visibility: 10 miles , 16 km
2014/11/23 23:35 KUKT 232335Z AUTO 13003KT 10SM CLR 07/M02 A3010 RMK AO1
 
KPHL - Philadelphia, Pennsylvania, USA
Distance from station: S 22mi, 36km
Updated: Sun, 23-Nov-2014 5:54pm EST
Mostly cloudy
Mostly cloudy
 Wind from calm
Wind: Calm
Temperature: 52°F , 11°C
Dew Point: 30°F , -1°C
Humidity: 44%
Barometer: 30.12 inHg , 1020 hPa
Clouds: Mostly cloudy
Visibility: 10 miles , 16 km
Cloud details: Partly cloudy 10000 ft
Mostly cloudy 25000 ft
2014/11/23 22:54 KPHL 232254Z 00000KT 10SM SCT100 BKN250 11/M01 A3012 RMK AO2 SLP200 T01061011 $
KVAY - Mount Holly, New Jersey, USA
Distance from station: SE 25mi, 41km
Updated: Sun, 23-Nov-2014 5:54pm EST
Clear
Clear
 Wind from SSE
Wind: SSE 3 mph , 6 km/h
Temperature: 48°F , 9°C
Dew Point: 36°F , 2°C
Humidity: 62%
Barometer: 30.12 inHg , 1020 hPa
Clouds: Clear
Visibility: 10 miles , 16 km
2014/11/23 22:54 KVAY 232254Z AUTO 16003KT 10SM CLR 09/02 A3012 RMK AO2 SLP200 T00940022
KXLL - Allentown Queen, Pennsylvania, USA
Distance from station: NNW 31mi, 49km
Updated: Sun, 23-Nov-2014 6:35pm EST
Clear
Clear
 Wind from S
Wind: S 7 mph , 11 km/h
Temperature: 50°F , 10°C
Wind Chill: 47°F , 8°C
Dew Point: 28°F , -2°C
Humidity: 43%
Barometer: 30.09 inHg , 1019 hPa
Clouds: Clear
Visibility: 10 miles , 16 km
2014/11/23 23:35 KXLL 232335Z AUTO 17006KT 10SM CLR 10/M02 A3009 RMK AO2
 
KWRI - Wrightst/Mcguire, New Jersey, USA
Distance from station: ESE 34mi, 54km
Updated: Sun, 23-Nov-2014 5:58pm EST
Clear
Clear
 Wind from SSE
Wind: SSE 3 mph , 6 km/h
Temperature: 48°F , 9°C
Dew Point: 37°F , 3°C
Humidity: 66%
Barometer: 30.11 inHg , 1019.6 hPa
Clouds: Clear
Visibility: 10 miles , 16 km
2014/11/23 22:58 KWRI 232258Z AUTO 16003KT 10SM CLR 09/03 A3011 RMK AO2 SLP200 T00910025
KABE - Allentown, Pennsylvania, USA
Distance from station: NNW 35mi, 56km
Updated: Sun, 23-Nov-2014 5:51pm EST
Clear
Clear
 Wind from SSE
Wind: SSE 5 mph , 7 km/h
Temperature: 48°F , 9°C
Wind Chill: 46°F , 8°C
Dew Point: 25°F , -4°C
Humidity: 40%
Barometer: 30.10 inHg , 1019.3 hPa
Clouds: Clear
Visibility: 10 miles , 16 km
2014/11/23 22:51 KABE 232251Z 15004KT 10SM CLR 09/M04 A3010 RMK AO2 SLP194 T00941039
KMQS - Coatesville, Pennsylvania, USA
Distance from station: WSW 39mi, 63km
Updated: Sun, 23-Nov-2014 6:35pm EST
Clear
Clear
 Wind from ESE
Wind: ESE 5 mph , 7 km/h
Temperature: 46°F , 8°C
Wind Chill: 44°F , 7°C
Dew Point: 28°F , -2°C
Humidity: 50%
Barometer: 30.08 inHg , 1018.6 hPa
Clouds: Clear
Visibility: 10 miles , 16 km
2014/11/23 23:35 KMQS 232335Z AUTO 11004KT 10SM CLR 08/M02 A3008 RMK AO2
 
KSMQ - Somerville, New Jersey, USA
Distance from station: NE 40mi, 64km
Updated: Sun, 23-Nov-2014 5:53pm EST
Clear
Clear
 Wind from calm
Wind: Calm
Temperature: 43°F , 6°C
Dew Point: 27°F , -3°C
Humidity: 53%
Barometer: 30.11 inHg , 1019.6 hPa
Clouds: Clear
Visibility: 10 miles , 16 km
2014/11/23 22:53 KSMQ 232253Z AUTO 00000KT 10SM CLR 06/M03 A3011 RMK AO2 SLP196 T00611028
KILG - Wilmington, Delaware, USA
Distance from station: SSW 42mi, 68km
Updated: Sun, 23-Nov-2014 5:51pm EST
Clear
Clear
 Wind from SE
Wind: SE 5 mph , 7 km/h
Temperature: 48°F , 9°C
Wind Chill: 46°F , 8°C
Dew Point: 34°F , 1°C
Humidity: 58%
Barometer: 30.12 inHg , 1020 hPa
Clouds: Clear
Visibility: 10 miles , 16 km
2014/11/23 22:51 KILG 232251Z 13004KT 10SM CLR 09/01 A3012 RMK AO2 SLP197 T00940006
KRDG - Reading, Pennsylvania, USA
Distance from station: WNW 43mi, 70km
Updated: Sun, 23-Nov-2014 5:54pm EST
Clear
Clear
 Wind from SSE
Wind: SSE 6 mph , 9 km/h
Temperature: 52°F , 11°C
Dew Point: 27°F , -3°C
Humidity: 38%
Barometer: 30.08 inHg , 1018.6 hPa
Clouds: Clear
Visibility: 10 miles , 16 km
2014/11/23 22:54 KRDG 232254Z AUTO 15005KT 10SM CLR 11/M03 A3008 RMK AO2 SLP191 T01061033
 
KNEL - Lakehurst Nas, New Jersey, USA
Distance from station: ESE 46mi, 74km
Updated: Mon, 06-Oct-2014 4:00pm EDT
NOT Current
Clear
Clear
 Wind from S
Wind: S 15 mph , 24 km/h, Gust: 23 mph , 37 km/h
Temperature: 70°F , 21°C
Dew Point: 46°F , 8°C
Humidity: 43%
Barometer: 30.01 inHg , 1016.3 hPa
Clouds: Clear
Visibility: 10 miles , 16 km
2014/10/06 20:00 KNEL 062000Z AUTO 17013G20KT 10SM CLR 21/08 A3001 RMK AO2 SLP163 T02110083 $
KMJX - Toms River, New Jersey, USA
Distance from station: ESE 50mi, 80km
Updated: Sun, 23-Nov-2014 6:35pm EST
Clear
Clear
 Wind from S
Wind: S 3 mph , 6 km/h
Temperature: 48°F , 9°C
Dew Point: 43°F , 6°C
Humidity: 82%
Barometer: 30.14 inHg , 1020.7 hPa
Clouds: Clear
Visibility: 10 miles , 16 km
2014/11/23 23:35 KMJX 232335Z AUTO 17003KT 10SM CLR 09/06 A3014 RMK AO1